createdAt,value
2018-11-21T00:01:28.880Z,31.07
2018-11-21T00:03:57.203Z,31.73
2018-11-21T00:06:25.481Z,31.27
2018-11-21T00:08:53.758Z,33.07
2018-11-21T00:11:21.962Z,31.50
2018-11-21T00:13:50.248Z,30.50
2018-11-21T00:16:18.476Z,30.50
2018-11-21T00:18:46.737Z,32.50
2018-11-21T00:21:14.982Z,34.73
2018-11-21T00:23:43.197Z,36.10
2018-11-21T00:26:11.459Z,32.87
2018-11-21T00:28:39.714Z,33.23
2018-11-21T00:31:08.397Z,35.70
2018-11-21T00:33:36.595Z,33.97
2018-11-21T00:36:04.893Z,34.63
2018-11-21T00:38:33.148Z,33.30
2018-11-21T00:41:01.442Z,32.43
2018-11-21T00:43:29.744Z,32.17
2018-11-21T00:45:58.052Z,31.93
2018-11-21T00:48:26.270Z,35.80
2018-11-21T00:50:54.775Z,34.17
2018-11-21T00:53:23.026Z,32.17
2018-11-21T00:55:51.293Z,34.00
2018-11-21T00:58:19.546Z,30.50
2018-11-21T01:00:47.853Z,30.57
2018-11-21T01:03:16.235Z,33.73
2018-11-21T01:05:44.600Z,31.67
2018-11-21T01:08:12.846Z,34.57
2018-11-21T01:10:41.084Z,35.60
2018-11-21T01:13:10.152Z,33.67
2018-11-21T01:15:38.460Z,32.87
2018-11-21T01:18:06.666Z,31.17
2018-11-21T01:20:34.965Z,34.93
2018-11-21T01:23:03.062Z,35.20
2018-11-21T01:25:31.291Z,37.50
2018-11-21T01:27:59.577Z,33.13
2018-11-21T01:30:27.959Z,34.47
2018-11-21T01:32:56.174Z,34.70
2018-11-21T01:35:24.441Z,35.50
2018-11-21T01:37:52.682Z,31.60
2018-11-21T01:40:20.951Z,33.63
2018-11-21T01:42:49.268Z,34.90
2018-11-21T01:45:17.538Z,34.47
2018-11-21T01:47:45.829Z,32.30
2018-11-21T01:50:14.078Z,32.97
2018-11-21T01:52:42.354Z,29.90
2018-11-21T01:55:10.605Z,32.97
2018-11-21T01:57:38.822Z,31.07
2018-11-21T02:00:09.039Z,34.97
2018-11-21T02:02:37.265Z,33.73
2018-11-21T02:05:05.620Z,35.00
2018-11-21T02:07:34.096Z,35.03
2018-11-21T02:10:02.297Z,32.60
2018-11-21T02:12:30.533Z,34.43
2018-11-21T02:14:58.759Z,38.67
2018-11-21T02:17:26.994Z,31.77
2018-11-21T02:19:55.194Z,37.73
2018-11-21T02:22:23.473Z,33.50
2018-11-21T02:24:51.627Z,37.07
2018-11-21T02:27:19.873Z,35.97
2018-11-21T02:29:48.110Z,37.00
2018-11-21T02:32:16.357Z,40.70
2018-11-21T02:34:44.600Z,34.23
2018-11-21T02:37:12.809Z,38.47
2018-11-21T02:39:41.052Z,32.77
2018-11-21T02:42:09.285Z,35.90
2018-11-21T02:44:37.472Z,38.33
2018-11-21T02:47:05.811Z,39.07
2018-11-21T02:49:34.051Z,57.57
2018-11-21T02:52:02.349Z,51.23
2018-11-21T02:54:30.604Z,40.20
2018-11-21T02:57:18.502Z,43.20
2018-11-21T02:59:47.147Z,47.63
2018-11-21T03:02:15.390Z,40.20
2018-11-21T03:04:43.648Z,35.77
2018-11-21T03:07:11.914Z,40.77
2018-11-21T03:09:40.126Z,42.13
2018-11-21T03:12:08.959Z,39.50
2018-11-21T03:14:37.191Z,36.00
2018-11-21T03:17:05.620Z,40.57
2018-11-21T03:19:33.842Z,37.10
2018-11-21T03:22:02.011Z,40.70
2018-11-21T03:24:30.203Z,36.90
2018-11-21T03:26:58.495Z,38.67
2018-11-21T03:29:26.752Z,40.80
2018-11-21T03:31:54.944Z,35.73
2018-11-21T03:34:23.169Z,35.17
2018-11-21T03:36:52.655Z,38.13
2018-11-21T03:39:22.187Z,39.50
2018-11-21T03:41:50.413Z,34.73
2018-11-21T03:44:18.590Z,35.88
2018-11-21T03:46:47.787Z,36.67
2018-11-21T03:49:16.500Z,39.53
2018-11-21T03:51:44.721Z,38.07
2018-11-21T03:54:12.922Z,37.10
2018-11-21T03:56:41.405Z,38.60
2018-11-21T03:59:10.122Z,37.97
2018-11-21T04:01:38.685Z,36.23
2018-11-21T04:04:07.311Z,39.00
2018-11-21T04:06:35.505Z,35.70
2018-11-21T04:09:06.601Z,36.13
2018-11-21T04:11:34.818Z,39.57
2018-11-21T04:14:03.094Z,36.10
2018-11-21T04:16:31.333Z,37.53
2018-11-21T04:18:59.653Z,43.97
2018-11-21T04:21:27.842Z,46.87
2018-11-21T04:23:56.055Z,50.70
2018-11-21T04:26:24.256Z,45.97
2018-11-21T04:28:52.531Z,46.90
2018-11-21T04:31:20.791Z,40.50
2018-11-21T04:33:48.955Z,41.87
2018-11-21T04:36:17.169Z,41.87
2018-11-21T04:38:45.460Z,42.07
2018-11-21T04:41:13.670Z,37.63
2018-11-21T04:43:41.893Z,42.10
2018-11-21T04:46:10.094Z,40.27
2018-11-21T04:48:38.293Z,41.50
2018-11-21T04:51:06.537Z,39.10
2018-11-21T04:53:34.730Z,35.80
2018-11-21T04:56:02.929Z,42.63
2018-11-21T04:58:31.142Z,39.47
2018-11-21T05:00:59.411Z,41.30
2018-11-21T05:03:27.634Z,33.73
2018-11-21T05:05:55.830Z,39.27
2018-11-21T05:08:24.069Z,38.77
2018-11-21T05:10:52.339Z,40.03
2018-11-21T05:13:20.559Z,37.70
2018-11-21T05:15:48.831Z,41.63
2018-11-21T05:18:17.145Z,43.07
2018-11-21T05:20:45.371Z,39.60
2018-11-21T05:23:13.625Z,42.30
2018-11-21T05:25:41.873Z,41.43
2018-11-21T05:28:10.043Z,39.70
2018-11-21T05:30:38.287Z,39.13
2018-11-21T05:33:06.497Z,37.70
2018-11-21T05:35:34.721Z,40.50
2018-11-21T05:38:02.935Z,39.67
2018-11-21T05:40:31.198Z,40.10
2018-11-21T05:42:59.404Z,40.77
2018-11-21T05:45:27.622Z,41.87
2018-11-21T05:47:55.855Z,38.70
2018-11-21T05:50:24.112Z,42.80
2018-11-21T05:52:52.392Z,41.40
2018-11-21T05:55:20.669Z,39.33
2018-11-21T05:57:48.878Z,40.63
2018-11-21T06:00:17.162Z,41.93
2018-11-21T06:02:45.405Z,38.70
2018-11-21T06:05:13.680Z,36.03
2018-11-21T06:07:41.857Z,36.60
2018-11-21T06:10:11.938Z,36.77
2018-11-21T06:12:40.767Z,39.33
2018-11-21T06:15:09.448Z,36.50
2018-11-21T06:17:37.890Z,38.87
2018-11-21T06:20:08.749Z,39.20
2018-11-21T06:22:37.007Z,37.13
2018-11-21T06:25:06.411Z,40.67
2018-11-21T06:27:34.621Z,41.67
2018-11-21T06:30:03.302Z,38.77
2018-11-21T06:32:31.579Z,43.10
2018-11-21T06:34:59.865Z,39.07
2018-11-21T06:37:28.120Z,40.10
2018-11-21T06:39:56.392Z,40.03
2018-11-21T06:42:24.629Z,38.50
2018-11-21T06:44:52.907Z,40.13
2018-11-21T06:47:21.082Z,38.87
2018-11-21T06:49:49.325Z,37.97
2018-11-21T06:52:22.117Z,36.00
2018-11-21T06:54:45.852Z,39.43
2018-11-21T06:57:14.143Z,39.17
2018-11-21T06:59:42.527Z,38.30
2018-11-21T07:02:10.805Z,36.77
2018-11-21T07:04:39.123Z,37.33
2018-11-21T07:07:07.371Z,41.63
2018-11-21T07:09:35.623Z,38.50
2018-11-21T07:12:03.923Z,36.53
2018-11-21T07:14:32.104Z,36.10
2018-11-21T07:17:00.356Z,40.37
2018-11-21T07:19:28.614Z,37.90
2018-11-21T07:21:56.846Z,37.20
2018-11-21T07:24:26.431Z,39.17
2018-11-21T07:26:53.496Z,36.67
2018-11-21T07:29:21.791Z,35.93
2018-11-21T07:31:50.017Z,33.70
2018-11-21T07:34:18.227Z,35.23
2018-11-21T07:36:49.014Z,36.97
2018-11-21T07:39:17.209Z,32.50
2018-11-21T07:41:45.465Z,34.37
2018-11-21T07:44:13.749Z,36.70
2018-11-21T07:46:42.194Z,35.73
2018-11-21T07:49:10.590Z,33.27
2018-11-21T07:51:38.942Z,35.57
2018-11-21T07:54:07.264Z,36.10
2018-11-21T07:57:17.445Z,32.40
2018-11-21T08:00:43.853Z,36.70
2018-11-21T08:03:12.436Z,33.03
2018-11-21T08:05:44.415Z,35.03
2018-11-21T08:08:28.430Z,29.93
2018-11-21T08:11:14.788Z,30.87
2018-11-21T08:14:01.048Z,28.57
2018-11-21T08:16:45.505Z,30.63
2018-11-21T08:19:42.024Z,31.70
2018-11-21T08:22:22.199Z,30.83
2018-11-21T08:25:15.700Z,29.60
2018-11-21T08:28:01.615Z,31.17
2018-11-21T08:30:29.867Z,29.50
2018-11-21T08:32:58.126Z,31.97
2018-11-21T08:35:26.370Z,29.03
2018-11-21T08:37:54.656Z,31.93
2018-11-21T08:40:22.896Z,31.30
2018-11-21T08:42:51.138Z,26.23
2018-11-21T08:45:19.411Z,28.23
2018-11-21T08:47:47.646Z,24.43
2018-11-21T08:50:15.924Z,25.63
2018-11-21T08:52:44.249Z,26.23
2018-11-21T08:55:13.116Z,36.90
2018-11-21T08:57:41.379Z,31.27
2018-11-21T09:00:11.525Z,43.43
2018-11-21T09:02:39.774Z,28.93
2018-11-21T09:05:09.673Z,24.30
2018-11-21T09:07:38.667Z,28.53
2018-11-21T09:10:09.354Z,34.57
2018-11-21T09:12:37.599Z,34.90
2018-11-21T09:15:12.007Z,34.07
2018-11-21T09:17:40.621Z,32.10
2018-11-21T09:20:09.692Z,30.77
2018-11-21T09:22:38.052Z,30.40
2018-11-21T09:25:07.600Z,29.90
2018-11-21T09:27:36.263Z,31.00
2018-11-21T09:30:08.946Z,34.07
2018-11-21T09:32:37.221Z,32.43
2018-11-21T09:35:07.727Z,32.13
2018-11-21T09:37:35.949Z,36.10
2018-11-21T09:40:06.227Z,33.83
2018-11-21T09:42:34.492Z,31.50
2018-11-21T09:45:02.682Z,36.13
2018-11-21T09:47:30.992Z,34.27
2018-11-21T09:49:59.160Z,35.10
2018-11-21T09:52:27.404Z,34.47
2018-11-21T09:54:55.668Z,35.03
2018-11-21T09:57:23.899Z,31.93
2018-11-21T09:59:52.126Z,33.13
2018-11-21T10:02:57.040Z,33.50
2018-11-21T10:05:25.309Z,32.47
2018-11-21T10:08:23.145Z,37.50
2018-11-21T10:10:51.384Z,31.90
2018-11-21T10:13:19.611Z,38.23
2018-11-21T10:15:47.836Z,38.87
2018-11-21T10:18:23.276Z,36.27
2018-11-21T10:20:49.770Z,36.30
2018-11-21T10:23:18.048Z,36.20
2018-11-21T10:25:46.338Z,34.67
2018-11-21T10:28:14.952Z,37.57
2018-11-21T10:30:43.157Z,36.93
2018-11-21T10:33:11.645Z,35.70
2018-11-21T10:35:39.868Z,34.50
2018-11-21T10:38:08.115Z,34.07
2018-11-21T10:40:36.344Z,35.00
2018-11-21T10:43:04.902Z,35.67
2018-11-21T10:45:33.125Z,33.17
2018-11-21T10:48:01.357Z,31.67
2018-11-21T10:50:29.862Z,26.47
2018-11-21T10:52:58.094Z,31.80
2018-11-21T10:55:26.345Z,32.30
2018-11-21T10:57:54.677Z,35.40
2018-11-21T11:00:41.051Z,32.87
2018-11-21T11:03:11.616Z,32.13
2018-11-21T11:06:02.293Z,33.67
2018-11-21T11:08:48.440Z,32.17
2018-11-21T11:11:28.254Z,31.33
2018-11-21T11:14:07.919Z,32.40
2018-11-21T11:16:53.335Z,30.83
2018-11-21T11:19:38.354Z,32.50
2018-11-21T11:22:24.364Z,33.87
2018-11-21T11:25:14.440Z,32.93
2018-11-21T11:27:55.754Z,33.37
2018-11-21T11:36:44.701Z,34.50
2018-11-21T11:39:30.512Z,35.40
2018-11-21T11:42:17.925Z,35.27
2018-11-21T11:45:04.121Z,33.47
2018-11-21T11:47:56.657Z,32.43
2018-11-21T11:50:53.036Z,29.47
2018-11-21T11:53:29.886Z,31.93
2018-11-21T11:56:10.714Z,33.43
2018-11-21T11:58:50.588Z,32.13
2018-11-21T12:01:27.974Z,34.53
2018-11-21T12:04:08.114Z,34.27
2018-11-21T12:07:04.361Z,34.43
2018-11-21T12:10:06.928Z,32.77
2018-11-21T12:12:53.087Z,32.87
2018-11-21T12:15:43.248Z,34.60
2018-11-21T12:18:33.428Z,32.00
2018-11-21T12:21:19.201Z,31.07
2018-11-21T12:24:09.583Z,27.77
2018-11-21T12:26:59.738Z,30.63
2018-11-21T12:29:45.562Z,32.20
2018-11-21T12:32:39.326Z,28.30
2018-11-21T12:35:42.527Z,27.87
2018-11-21T12:38:20.020Z,34.50
2018-11-21T12:41:13.181Z,31.27
2018-11-21T12:44:06.275Z,29.43
2018-11-21T12:46:56.463Z,34.23
2018-11-21T12:49:42.675Z,31.40
2018-11-21T12:52:28.674Z,37.37
2018-11-21T12:55:14.550Z,30.90
2018-11-21T12:57:56.622Z,33.47
2018-11-21T13:00:55.822Z,35.47
2018-11-21T13:03:37.516Z,34.73
2018-11-21T13:06:23.863Z,33.77
2018-11-21T13:09:10.128Z,27.10
2018-11-21T13:11:46.711Z,31.60
2018-11-21T13:14:32.822Z,35.73
2018-11-21T13:17:28.007Z,32.13
2018-11-21T13:20:14.008Z,34.03
2018-11-21T13:22:54.557Z,36.33
2018-11-21T13:25:42.947Z,35.93
2018-11-21T13:28:29.607Z,34.17
2018-11-21T13:31:17.071Z,36.23
2018-11-21T13:34:03.266Z,35.10
2018-11-21T13:36:42.464Z,37.63
2018-11-21T13:39:36.427Z,37.27
2018-11-21T13:42:21.823Z,37.60
2018-11-21T13:45:07.948Z,36.27
2018-11-21T13:47:48.157Z,36.33
2018-11-21T13:50:35.547Z,32.73
2018-11-21T13:53:28.752Z,34.53
2018-11-21T13:55:56.977Z,36.93
2018-11-21T13:58:25.190Z,33.37
2018-11-21T14:00:53.380Z,38.47
2018-11-21T14:03:21.623Z,35.43
2018-11-21T14:05:49.818Z,34.73
2018-11-21T14:08:18.047Z,32.07
2018-11-21T14:10:46.401Z,31.67
2018-11-21T14:13:14.653Z,30.03
2018-11-21T14:15:42.884Z,29.67
2018-11-21T14:18:11.221Z,30.27
2018-11-21T14:20:39.560Z,28.57
2018-11-21T14:23:07.765Z,34.20
2018-11-21T14:25:36.122Z,31.70
2018-11-21T14:28:04.523Z,33.37
2018-11-21T14:30:32.796Z,35.07
2018-11-21T14:33:04.867Z,35.07
2018-11-21T14:35:33.070Z,33.43
2018-11-21T14:38:01.277Z,29.03
2018-11-21T14:40:29.521Z,33.50
2018-11-21T14:42:58.544Z,32.53
2018-11-21T14:45:28.116Z,32.77
2018-11-21T14:47:56.351Z,32.97
2018-11-21T14:50:33.023Z,33.73
2018-11-21T14:53:01.314Z,29.63
2018-11-21T14:55:29.595Z,33.03
2018-11-21T14:57:57.861Z,33.60
2018-11-21T15:00:26.135Z,34.13
2018-11-21T15:02:54.342Z,38.77
2018-11-21T15:05:22.537Z,31.40
2018-11-21T15:07:50.808Z,32.53
2018-11-21T15:10:19.003Z,30.20
2018-11-21T15:12:50.229Z,31.53
2018-11-21T15:15:19.701Z,32.60
2018-11-21T15:17:47.879Z,30.40
2018-11-21T15:20:20.650Z,30.07
2018-11-21T15:22:49.743Z,27.53
2018-11-21T15:25:19.641Z,27.60
2018-11-21T15:27:47.976Z,27.40
2018-11-21T15:30:19.162Z,26.33
2018-11-21T15:32:47.427Z,30.27
2018-11-21T15:35:15.636Z,28.43
2018-11-21T15:37:44.163Z,32.50
2018-11-21T15:40:15.695Z,28.80
2018-11-21T15:45:16.727Z,25.93
2018-11-21T15:47:47.189Z,25.60
2018-11-21T15:50:16.352Z,27.73
2018-11-21T15:52:45.522Z,24.00
2018-11-21T15:55:14.729Z,26.23
2018-11-21T15:57:45.188Z,24.97
2018-11-21T16:00:27.805Z,23.87
2018-11-21T16:03:01.066Z,26.53
2018-11-21T16:05:29.548Z,26.00
2018-11-21T16:08:03.291Z,25.73
2018-11-21T16:10:33.736Z,27.00
2018-11-21T16:13:02.465Z,24.23
2018-11-21T16:15:35.682Z,25.47
2018-11-21T16:17:59.823Z,24.20
2018-11-21T16:20:28.031Z,24.63
2018-11-21T16:22:56.407Z,29.23
2018-11-21T16:25:24.867Z,27.03
2018-11-21T16:27:53.271Z,30.30
2018-11-21T16:30:23.187Z,30.60
2018-11-21T16:32:51.455Z,30.63
2018-11-21T16:35:19.919Z,32.50
2018-11-21T16:37:48.223Z,32.23
2018-11-21T16:40:21.214Z,33.03
2018-11-21T16:42:49.794Z,31.47
2018-11-21T16:45:20.024Z,35.00
2018-11-21T16:47:48.314Z,33.30
2018-11-21T16:50:18.050Z,33.50
2018-11-21T16:52:46.336Z,31.53
2018-11-21T16:55:16.430Z,33.33
2018-11-21T16:57:45.279Z,33.87
2018-11-21T17:00:16.275Z,32.87
2018-11-21T17:02:44.613Z,40.77
2018-11-21T17:05:14.106Z,32.43
2018-11-21T17:07:42.602Z,34.30
2018-11-21T17:10:12.633Z,31.37
2018-11-21T17:12:41.222Z,33.23
2018-11-21T17:15:11.462Z,32.40
2018-11-21T17:17:39.670Z,34.23
2018-11-21T17:20:16.616Z,33.53
2018-11-21T17:22:45.648Z,32.17
2018-11-21T17:25:15.266Z,33.57
2018-11-21T17:27:44.044Z,32.00
2018-11-21T17:30:14.144Z,32.13
2018-11-21T17:32:42.282Z,30.80
2018-11-21T17:35:12.075Z,31.17
2018-11-21T17:37:40.336Z,32.03
2018-11-21T17:40:20.034Z,30.63
2018-11-21T17:42:48.437Z,31.40
2018-11-21T17:45:17.580Z,30.63
2018-11-21T17:47:47.668Z,30.83
2018-11-21T17:50:17.319Z,32.30
2018-11-21T17:52:45.963Z,31.23
2018-11-21T17:55:19.007Z,28.53
2018-11-21T17:57:47.241Z,31.63
2018-11-21T18:00:25.496Z,32.53
2018-11-21T18:02:53.742Z,31.93
2018-11-21T18:05:23.784Z,31.63
2018-11-21T18:07:52.105Z,28.40
2018-11-21T18:10:22.410Z,28.90
2018-11-21T18:12:50.661Z,30.57
2018-11-21T18:15:19.556Z,24.03
2018-11-21T18:17:48.585Z,22.83
2018-11-21T18:20:17.397Z,24.57
2018-11-21T18:22:46.403Z,25.10
2018-11-21T18:25:25.852Z,24.07
2018-11-21T18:27:54.053Z,24.60
2018-11-21T18:30:23.490Z,23.97
2018-11-21T18:32:51.705Z,23.13
2018-11-21T18:35:21.328Z,25.50
2018-11-21T18:37:49.572Z,24.03
2018-11-21T18:40:19.365Z,24.47
2018-11-21T18:42:50.439Z,26.27
2018-11-21T18:45:21.273Z,22.53
2018-11-21T18:47:49.848Z,29.43
2018-11-21T18:50:18.919Z,23.80
2018-11-21T18:52:47.833Z,29.77
2018-11-21T18:55:18.643Z,30.37
2018-11-21T18:58:47.025Z,26.03
2018-11-21T19:01:15.248Z,26.03
2018-11-21T19:03:43.470Z,30.13
2018-11-21T19:06:11.653Z,35.53
2018-11-21T19:08:39.888Z,25.57
2018-11-21T19:11:08.097Z,27.33
2018-11-21T19:13:36.343Z,28.60
2018-11-21T19:16:04.612Z,27.83
2018-11-21T19:18:32.789Z,25.63
2018-11-21T19:21:01.295Z,28.07
2018-11-21T19:23:29.514Z,28.60
2018-11-21T19:25:57.720Z,24.17
2018-11-21T19:28:25.931Z,29.07
2018-11-21T19:30:54.139Z,26.67
2018-11-21T19:33:22.398Z,30.23
2018-11-21T19:35:50.640Z,30.63
2018-11-21T19:38:20.061Z,33.00
2018-11-21T19:40:47.169Z,30.33
2018-11-21T19:43:15.589Z,26.77
2018-11-21T19:45:43.773Z,25.30
2018-11-21T19:48:12.053Z,27.77
2018-11-21T19:50:40.630Z,29.03
2018-11-21T19:53:08.862Z,27.37
2018-11-21T19:55:37.621Z,35.27
2018-11-21T19:58:06.076Z,27.33
2018-11-21T20:00:35.586Z,25.50
2018-11-21T20:03:03.978Z,28.73
2018-11-21T20:05:32.195Z,26.67
2018-11-21T20:08:00.407Z,26.60
2018-11-21T20:10:28.625Z,33.10
2018-11-21T20:12:56.846Z,30.17
2018-11-21T20:15:26.377Z,29.97
2018-11-21T20:17:56.423Z,29.00
2018-11-21T20:20:24.958Z,26.00
2018-11-21T20:22:53.400Z,27.47
2018-11-21T20:25:22.643Z,26.10
2018-11-21T20:27:50.857Z,30.80
2018-11-21T20:30:26.762Z,27.20
2018-11-21T20:32:55.191Z,27.07
2018-11-21T20:35:23.385Z,26.73
2018-11-21T20:37:51.588Z,27.00
2018-11-21T20:40:30.759Z,28.03
2018-11-21T20:42:58.967Z,28.83
2018-11-21T20:45:28.145Z,25.77
2018-11-21T20:47:57.151Z,27.13
2018-11-21T20:50:25.363Z,26.07
2018-11-21T20:52:53.629Z,27.23
2018-11-21T20:55:23.363Z,32.73
2018-11-21T20:57:51.617Z,25.03
2018-11-21T21:00:21.529Z,26.73
2018-11-21T21:02:49.915Z,27.90
2018-11-21T21:05:19.644Z,28.27
2018-11-21T21:07:48.068Z,29.80
2018-11-21T21:10:20.546Z,27.80
2018-11-21T21:12:48.893Z,27.90
2018-11-21T21:15:17.204Z,30.80
2018-11-21T21:17:46.452Z,39.57
2018-11-21T21:20:15.889Z,30.57
2018-11-21T21:22:44.641Z,33.13
2018-11-21T21:25:14.405Z,35.90
2018-11-21T21:27:42.617Z,65.47
2018-11-21T21:30:13.207Z,43.43
2018-11-21T21:32:41.654Z,47.00
2018-11-21T21:35:10.974Z,27.60
2018-11-21T21:37:39.197Z,36.03
2018-11-21T21:40:09.800Z,25.70
2018-11-21T21:42:38.624Z,24.93
2018-11-21T21:45:08.690Z,26.53
2018-11-21T21:47:41.615Z,26.17
2018-11-21T21:50:07.201Z,28.27
2018-11-21T21:52:35.500Z,27.63
2018-11-21T21:55:03.855Z,30.33
2018-11-21T21:57:32.055Z,22.97
2018-11-21T22:00:01.774Z,25.33
2018-11-21T22:02:30.015Z,25.80
2018-11-21T22:04:58.229Z,27.37
2018-11-21T22:07:26.401Z,29.60
2018-11-21T22:09:54.711Z,31.63
2018-11-21T22:12:22.915Z,31.73
2018-11-21T22:14:51.193Z,27.33
2018-11-21T22:17:19.388Z,29.03
2018-11-21T22:19:47.625Z,29.80
2018-11-21T22:22:15.848Z,29.07
2018-11-21T22:24:44.078Z,25.83
2018-11-21T22:27:12.287Z,29.33
2018-11-21T22:29:40.476Z,27.37
2018-11-21T22:32:08.658Z,27.70
2018-11-21T22:34:36.873Z,29.50
2018-11-21T22:37:05.167Z,30.17
2018-11-21T22:39:33.381Z,28.83
2018-11-21T22:42:01.561Z,29.90
2018-11-21T22:44:29.826Z,31.43
2018-11-21T22:46:58.028Z,29.93
2018-11-21T22:49:26.240Z,28.67
2018-11-21T22:51:54.414Z,30.50
2018-11-21T22:54:22.675Z,27.67
2018-11-21T22:56:50.863Z,30.67
2018-11-21T22:59:19.085Z,27.27
2018-11-21T23:01:47.338Z,31.27
2018-11-21T23:04:15.633Z,30.43
2018-11-21T23:06:43.831Z,29.40
2018-11-21T23:09:12.883Z,26.27
2018-11-21T23:11:41.341Z,31.13
2018-11-21T23:14:09.639Z,32.27
2018-11-21T23:16:37.855Z,29.50
2018-11-21T23:19:06.223Z,30.47
2018-11-21T23:21:34.444Z,30.53
2018-11-21T23:24:02.669Z,29.23
2018-11-21T23:26:30.897Z,32.27
2018-11-21T23:28:59.070Z,29.13
2018-11-21T23:31:27.288Z,30.63
2018-11-21T23:33:55.623Z,30.00
2018-11-21T23:36:23.833Z,31.13
2018-11-21T23:38:52.017Z,28.30
2018-11-21T23:41:20.195Z,30.33
2018-11-21T23:43:48.378Z,31.13
2018-11-21T23:46:16.602Z,29.50
2018-11-21T23:48:44.935Z,27.53
2018-11-21T23:51:13.154Z,29.93
2018-11-21T23:53:41.343Z,31.87
2018-11-21T23:56:09.531Z,32.07
2018-11-21T23:58:37.734Z,30.47
